Durham, CA (95938)

5:45 AM PDT on September 20, 2014 (GMT -0700)
REAL at CSU Chico Farm | Change Station
CLOSE
Current Station
Personal Weather Station
Location: Chico, CA
Elevation: 175 ft
Nearby Weather Stations

Elev 175 ft 39.67 °N, 121.82 °W | Updated 14 minutes ago

Clear
Clear
61.6 °F
Feels Like 61.6 °F
N
0.0
Wind Variable Wind from North

Today
High -- | Low -- °F
--% Chance of Precip.
Yesterday
High -- | Low -- °F
Precip. -- in
6:53 AM 7:07 PM
Waning Crescent, 12% visible
Pressure 29.88 in
Visibility 10.0 miles
Clouds Clear
Dew Point 52 °F
Humidity 72%
Rainfall 0.00 in
Snow Depth 0 in , 0 in , 1 in
UV 0.0 out of 12
Pollen 6.40 out of 12
Ozone Good
Flu Activity Not available.
METAR KCIC 201235Z AUTO 05004KT 10SM CLR 20/11 A2988 RMK AO1

More Conditions Fewer Conditions

Pressure 29.88 in
Visibility 10.0 miles
Clouds Clear
Dew Point 52 °F
Humidity 72%
Rainfall 0.00 in
Snow Depth 0 in , 0 in , 1 in
UV 0.0 out of 12
Pollen 6.40 out of 12
Ozone Good
Flu Activity Not available.
METAR KCIC 201235Z AUTO 05004KT 10SM CLR 20/11 A2988 RMK AO1

More Conditions Fewer Conditions

10-Day Weather Forecast

Almanac

Astronomy

Sep. 20, 2014 Rise Set
Actual Time 6:53 AM PDT 7:07 PM PDT
Civil Twilight 6:26 AM PDT 7:34 PM PDT
Nautical Twilight 5:54 AM PDT 8:05 PM PDT
Astronomical Twilight 5:22 AM PDT 8:37 PM PDT
Moon 3:37 AM PDT 5:13 PM PDT
Length of Visible Light 13h 08m
Length of Day
12h 14m
Tomorrow will be 2m 34s shorter.
Waning Crescent, 12% of the Moon is Illuminated
Today
Waning Crescent
Sep 24
New
Oct 1
First Quarter
Oct 8
Full
Oct 15
Last Quarter

Today's Extremes

State Highs State Lows

Community

WunderPhotos

Upload Photos

1,754,837 photos uploaded!

Nearby

Air Quality

  Air Quality AQ Index Pollutant
Yesterday Moderate
PM2.5
Yesterday Good
OZONE
Current Good
OZONE

Snow Depth

Station Depth Elevation
Spratt Creek 1 in 6200 ft
Rubicon #2 0 in 7500 ft
Tahoe City Cross 0 in 6750 ft
Summit Meadow 1 in 9122 ft
Sonora Pass 0 in 8800 ft

Earthquake Activity

City Distance Mag. Time & Date
Livermore, California 135 miles 2.6 3:37 AM PDT
2014-09-19
The Geysers, California 79 miles 2.5 11:29 PM PDT
2014-09-17
Minimum magnitude displayed is 2.5.

Coastal Water Temperatures

Place Temperature
No Stations Reporting

Nearby Weather Stations